createdAt,value
2024-02-03T00:00:21.056Z,23.22
2024-02-03T00:01:21.043Z,23.25
2024-02-03T00:02:21.051Z,23.22
2024-02-03T00:03:21.097Z,23.25
2024-02-03T00:04:21.147Z,23.24
2024-02-03T00:05:21.134Z,23.24
2024-02-03T00:06:21.240Z,23.24
2024-02-03T00:07:21.265Z,23.22
2024-02-03T00:08:21.229Z,23.24
2024-02-03T00:09:21.298Z,23.24
2024-02-03T00:10:21.262Z,23.25
2024-02-03T00:11:21.852Z,23.25
2024-02-03T00:12:21.377Z,23.22
2024-02-03T00:13:21.358Z,23.27
2024-02-03T00:14:21.391Z,23.22
2024-02-03T00:15:21.474Z,23.24
2024-02-03T00:16:21.460Z,23.22
2024-02-03T00:17:21.470Z,23.22
2024-02-03T00:18:21.638Z,23.22
2024-02-03T00:19:21.612Z,23.24
2024-02-03T00:20:21.565Z,23.22
2024-02-03T00:21:21.591Z,23.22
2024-02-03T00:22:21.619Z,23.21
2024-02-03T00:23:21.671Z,23.21
2024-02-03T00:24:21.709Z,23.22
2024-02-03T00:25:21.697Z,23.22
2024-02-03T00:26:21.718Z,23.22
2024-02-03T00:27:21.806Z,23.21
2024-02-03T00:28:21.799Z,23.20
2024-02-03T00:29:21.838Z,23.22
2024-02-03T00:30:21.880Z,23.20
2024-02-03T00:31:21.876Z,23.21
2024-02-03T00:32:21.960Z,23.21
2024-02-03T00:33:22.117Z,23.22
2024-02-03T00:34:22.060Z,23.21
2024-02-03T00:35:22.022Z,23.21
2024-02-03T00:36:22.111Z,23.21
2024-02-03T00:37:22.079Z,23.21
2024-02-03T00:38:22.117Z,23.20
2024-02-03T00:39:22.191Z,23.20
2024-02-03T00:40:22.213Z,23.20
2024-02-03T00:41:22.243Z,23.21
2024-02-03T00:42:22.310Z,23.21
2024-02-03T00:43:22.309Z,23.21
2024-02-03T00:44:22.340Z,23.20
2024-02-03T00:45:22.395Z,23.20
2024-02-03T00:46:22.430Z,23.20
2024-02-03T00:47:22.447Z,23.20
2024-02-03T00:48:22.721Z,23.20
2024-02-03T00:49:22.673Z,23.20
2024-02-03T00:50:22.608Z,23.17
2024-02-03T00:51:22.646Z,23.20
2024-02-03T00:52:22.667Z,23.20
2024-02-03T00:53:22.706Z,23.18
2024-02-03T00:54:22.757Z,23.18
2024-02-03T00:55:22.842Z,23.20
2024-02-03T00:56:22.832Z,23.20
2024-02-03T00:57:22.938Z,23.17
2024-02-03T00:58:22.895Z,23.18
2024-02-03T00:59:22.960Z,23.17
2024-02-03T01:00:23.071Z,23.18
2024-02-03T01:01:23.061Z,23.17
2024-02-03T01:02:23.034Z,23.18
2024-02-03T01:03:23.121Z,23.20
2024-02-03T01:04:23.297Z,23.20
2024-02-03T01:05:23.183Z,23.15
2024-02-03T01:06:23.224Z,23.18
2024-02-03T01:07:23.226Z,23.15
2024-02-03T01:08:23.272Z,23.14
2024-02-03T01:09:23.326Z,23.15
2024-02-03T01:10:23.354Z,23.14
2024-02-03T01:11:23.403Z,23.14
2024-02-03T01:12:23.499Z,23.17
2024-02-03T01:13:23.520Z,23.15
2024-02-03T01:14:23.544Z,23.15
2024-02-03T01:15:23.745Z,23.17
2024-02-03T01:16:23.635Z,23.15
2024-02-03T01:17:23.666Z,23.17
2024-02-03T01:18:23.906Z,23.15
2024-02-03T01:19:23.876Z,23.15
2024-02-03T01:20:23.818Z,23.17
2024-02-03T01:21:23.924Z,23.18
2024-02-03T01:22:23.920Z,23.15
2024-02-03T01:23:23.931Z,23.17
2024-02-03T01:24:23.991Z,23.15
2024-02-03T01:25:24.012Z,23.15
2024-02-03T01:26:24.047Z,23.14
2024-02-03T01:27:24.125Z,23.15
2024-02-03T01:28:24.144Z,23.14
2024-02-03T01:29:25.399Z,23.18
2024-02-03T01:30:24.254Z,23.15
2024-02-03T01:31:24.275Z,23.17
2024-02-03T01:32:24.344Z,23.14
2024-02-03T01:33:24.472Z,23.15
2024-02-03T01:34:24.499Z,23.14
2024-02-03T01:35:24.432Z,23.15
2024-02-03T01:36:24.555Z,23.15
2024-02-03T01:37:24.517Z,23.14
2024-02-03T01:38:24.563Z,23.15
2024-02-03T01:39:24.646Z,23.17
2024-02-03T01:40:24.648Z,23.17
2024-02-03T01:41:24.739Z,23.18
2024-02-03T01:42:24.774Z,23.14
2024-02-03T01:43:24.779Z,23.18
2024-02-03T01:44:24.820Z,23.14
2024-02-03T01:45:24.935Z,23.15
2024-02-03T01:46:24.913Z,23.15
2024-02-03T01:47:24.996Z,23.14
2024-02-03T01:48:25.063Z,23.13
2024-02-03T01:49:25.117Z,23.14
2024-02-03T01:50:25.086Z,23.13
2024-02-03T01:51:25.189Z,23.14
2024-02-03T01:52:25.201Z,23.13
2024-02-03T01:53:25.241Z,23.14
2024-02-03T01:54:25.378Z,23.13
2024-02-03T01:55:25.317Z,23.14
2024-02-03T01:56:25.343Z,23.13
2024-02-03T01:57:25.442Z,23.15
2024-02-03T01:58:25.420Z,23.14
2024-02-03T01:59:25.511Z,23.14
2024-02-03T02:00:25.596Z,23.15
2024-02-03T02:01:25.614Z,23.13
2024-02-03T02:02:25.625Z,23.14
2024-02-03T02:03:25.720Z,23.14
2024-02-03T02:04:25.882Z,23.11
2024-02-03T02:05:25.772Z,23.15
2024-02-03T02:06:28.832Z,23.13
2024-02-03T02:07:26.797Z,23.14
2024-02-03T02:08:25.786Z,23.13
2024-02-03T02:09:25.830Z,23.13
2024-02-03T02:10:25.779Z,23.14
2024-02-03T02:11:25.803Z,23.13
2024-02-03T02:12:25.800Z,23.13
2024-02-03T02:13:25.785Z,23.14
2024-02-03T02:14:26.242Z,23.10
2024-02-03T02:15:26.302Z,23.11
2024-02-03T02:16:25.784Z,23.13
2024-02-03T02:17:25.773Z,23.10
2024-02-03T02:18:26.000Z,23.13
2024-02-03T02:19:25.835Z,23.10
2024-02-03T02:20:25.792Z,23.11
2024-02-03T02:21:25.868Z,23.11
2024-02-03T02:22:25.880Z,23.10
2024-02-03T02:23:25.928Z,23.11
2024-02-03T02:24:26.010Z,23.11
2024-02-03T02:25:26.027Z,23.08
2024-02-03T02:26:26.062Z,23.10
2024-02-03T02:27:26.158Z,23.10
2024-02-03T02:28:26.164Z,23.11
2024-02-03T02:29:26.210Z,23.10
2024-02-03T02:30:26.280Z,23.11
2024-02-03T02:31:26.310Z,23.11
2024-02-03T02:32:26.362Z,23.08
2024-02-03T02:33:26.539Z,23.10
2024-02-03T02:34:26.505Z,23.10
2024-02-03T02:35:26.505Z,23.13
2024-02-03T02:36:26.659Z,23.14
2024-02-03T02:37:26.612Z,23.10
2024-02-03T02:38:26.644Z,23.11
2024-02-03T02:39:26.716Z,23.11
2024-02-03T02:40:26.732Z,23.10
2024-02-03T02:41:26.788Z,23.13
2024-02-03T02:42:26.857Z,23.10
2024-02-03T02:43:26.877Z,23.11
2024-02-03T02:44:26.939Z,23.11
2024-02-03T02:45:27.051Z,23.11
2024-02-03T02:46:27.203Z,23.08
2024-02-03T02:47:27.076Z,23.08
2024-02-03T02:48:27.196Z,23.08
2024-02-03T02:49:27.264Z,23.08
2024-02-03T02:50:27.215Z,23.08
2024-02-03T02:51:27.286Z,23.10
2024-02-03T02:52:27.316Z,23.08
2024-02-03T02:53:27.365Z,23.07
2024-02-03T02:54:27.548Z,23.10
2024-02-03T02:55:27.476Z,23.10
2024-02-03T02:56:27.536Z,23.10
2024-02-03T02:57:27.649Z,23.06
2024-02-03T02:58:27.661Z,23.08
2024-02-03T02:59:27.696Z,23.08
2024-02-03T03:00:27.760Z,23.07
2024-02-03T03:01:27.859Z,23.08
2024-02-03T03:02:27.832Z,23.08
2024-02-03T03:03:27.909Z,23.08
2024-02-03T03:04:28.141Z,23.08
2024-02-03T03:05:27.943Z,23.08
2024-02-03T03:06:28.051Z,23.08
2024-02-03T03:07:28.062Z,23.10
2024-02-03T03:08:28.101Z,23.07
2024-02-03T03:09:28.160Z,23.08
2024-02-03T03:10:28.187Z,23.10
2024-02-03T03:11:28.229Z,23.08
2024-02-03T03:12:28.278Z,23.08
2024-02-03T03:13:28.370Z,23.11
2024-02-03T03:14:28.363Z,23.10
2024-02-03T03:15:28.443Z,23.11
2024-02-03T03:16:28.447Z,23.06
2024-02-03T03:17:28.527Z,23.10
2024-02-03T03:18:28.593Z,23.08
2024-02-03T03:19:28.655Z,23.06
2024-02-03T03:20:28.626Z,23.08
2024-02-03T03:21:28.721Z,23.08
2024-02-03T03:22:28.723Z,23.08
2024-02-03T03:23:28.804Z,23.08
2024-02-03T03:24:28.829Z,23.08
2024-02-03T03:25:28.851Z,23.07
2024-02-03T03:26:28.896Z,23.10
2024-02-03T03:27:28.991Z,23.08
2024-02-03T03:28:28.986Z,23.07
2024-02-03T03:29:29.050Z,23.07
2024-02-03T03:30:29.108Z,23.10
2024-02-03T03:31:29.127Z,23.07
2024-02-03T03:32:29.249Z,23.07
2024-02-03T03:33:29.379Z,23.08
2024-02-03T03:34:29.410Z,23.06
2024-02-03T03:35:29.312Z,23.07
2024-02-03T03:36:29.393Z,23.06
2024-02-03T03:37:29.433Z,23.06
2024-02-03T03:38:29.463Z,23.06
2024-02-03T03:39:29.645Z,23.06
2024-02-03T03:40:29.556Z,23.06
2024-02-03T03:41:29.614Z,23.06
2024-02-03T03:42:29.687Z,23.06
2024-02-03T03:43:29.717Z,23.06
2024-02-03T03:44:29.774Z,23.07
2024-02-03T03:45:29.832Z,23.07
2024-02-03T03:46:29.844Z,23.06
2024-02-03T03:47:29.941Z,23.06
2024-02-03T03:48:29.992Z,23.07
2024-02-03T03:49:30.093Z,23.07
2024-02-03T03:50:30.048Z,23.07
2024-02-03T03:51:30.146Z,23.04
2024-02-03T03:52:30.138Z,23.06
2024-02-03T03:53:30.177Z,23.06
2024-02-03T03:54:30.287Z,23.06
2024-02-03T03:55:30.277Z,23.06
2024-02-03T03:56:30.312Z,23.07
2024-02-03T03:57:30.393Z,23.07
2024-02-03T03:58:30.419Z,23.06
2024-02-03T03:59:30.456Z,23.04
2024-02-03T04:00:30.568Z,23.06
2024-02-03T04:01:30.603Z,23.06
2024-02-03T04:02:30.586Z,23.06
2024-02-03T04:03:30.665Z,23.03
2024-02-03T04:04:30.712Z,23.03
2024-02-03T04:05:30.761Z,23.04
2024-02-03T04:06:30.867Z,23.06
2024-02-03T04:07:30.810Z,23.04
2024-02-03T04:08:30.844Z,23.06
2024-02-03T04:09:30.900Z,23.03
2024-02-03T04:10:30.949Z,23.06
2024-02-03T04:11:31.011Z,23.06
2024-02-03T04:12:31.072Z,23.03
2024-02-03T04:13:31.130Z,23.06
2024-02-03T04:14:31.148Z,23.03
2024-02-03T04:15:31.244Z,23.01
2024-02-03T04:16:31.231Z,23.06
2024-02-03T04:17:31.289Z,23.03
2024-02-03T04:18:31.444Z,23.03
2024-02-03T04:19:31.470Z,23.01
2024-02-03T04:20:31.436Z,23.04
2024-02-03T04:21:31.505Z,23.04
2024-02-03T04:22:31.510Z,23.04
2024-02-03T04:23:31.555Z,23.03
2024-02-03T04:24:31.652Z,23.03
2024-02-03T04:25:31.677Z,23.01
2024-02-03T04:26:31.705Z,23.03
2024-02-03T04:27:31.783Z,23.03
2024-02-03T04:28:31.800Z,23.01
2024-02-03T04:29:31.855Z,23.03
2024-02-03T04:30:31.971Z,23.03
2024-02-03T04:31:31.957Z,23.03
2024-02-03T04:32:32.049Z,23.04
2024-02-03T04:33:32.260Z,23.01
2024-02-03T04:34:32.259Z,23.03
2024-02-03T04:35:32.319Z,23.03
2024-02-03T04:36:32.236Z,23.00
2024-02-03T04:37:32.328Z,23.01
2024-02-03T04:38:32.369Z,23.00
2024-02-03T04:39:32.421Z,23.01
2024-02-03T04:40:32.549Z,23.01
2024-02-03T04:41:32.622Z,23.00
2024-02-03T04:42:32.540Z,23.00
2024-02-03T04:43:39.829Z,22.98
2024-02-03T04:44:39.825Z,23.00
2024-02-03T04:45:39.865Z,23.01
2024-02-03T04:46:39.831Z,23.00
2024-02-03T04:47:39.920Z,23.00
2024-02-03T04:48:40.041Z,23.00
2024-02-03T04:49:39.878Z,22.98
2024-02-03T04:50:39.835Z,22.98
2024-02-03T04:51:39.851Z,22.98
2024-02-03T04:52:39.820Z,23.00
2024-02-03T04:53:39.829Z,23.00
2024-02-03T04:54:39.861Z,22.97
2024-02-03T04:55:39.825Z,23.00
2024-02-03T04:56:39.840Z,23.00
2024-02-03T04:57:39.952Z,23.01
2024-02-03T04:58:39.834Z,22.98
2024-02-03T04:59:39.846Z,23.00
2024-02-03T05:00:39.904Z,23.01
2024-02-03T05:01:39.875Z,23.00
2024-02-03T05:02:39.848Z,23.00
2024-02-03T05:03:39.939Z,23.01
2024-02-03T05:04:39.866Z,23.00
2024-02-03T05:05:39.892Z,23.00
2024-02-03T05:06:40.045Z,23.00
2024-02-03T05:07:39.931Z,22.98
2024-02-03T05:08:39.987Z,23.00
2024-02-03T05:09:40.128Z,22.98
2024-02-03T05:10:40.092Z,23.00
2024-02-03T05:11:40.156Z,22.97
2024-02-03T05:12:40.268Z,22.97
2024-02-03T05:13:40.299Z,23.00
2024-02-03T05:14:40.363Z,23.00
2024-02-03T05:15:40.494Z,22.97
2024-02-03T05:16:40.504Z,22.98
2024-02-03T05:17:40.610Z,22.97
2024-02-03T05:18:40.702Z,23.00
2024-02-03T05:19:40.767Z,22.96
2024-02-03T05:20:40.729Z,22.96
2024-02-03T05:21:40.850Z,23.00
2024-02-03T05:22:40.853Z,22.97
2024-02-03T05:23:40.913Z,23.00
2024-02-03T05:24:40.994Z,22.97
2024-02-03T05:25:41.026Z,23.00
2024-02-03T05:26:41.103Z,22.97
2024-02-03T05:27:41.160Z,22.98
2024-02-03T05:28:41.197Z,22.97
2024-02-03T05:29:41.260Z,22.94
2024-02-03T05:30:41.350Z,22.96
2024-02-03T05:31:41.454Z,22.97
2024-02-03T05:32:41.449Z,22.97
2024-02-03T05:33:41.565Z,22.94
2024-02-03T05:34:41.702Z,22.98
2024-02-03T05:35:41.619Z,22.94
2024-02-03T05:36:41.770Z,22.96
2024-02-03T05:37:41.746Z,22.94
2024-02-03T05:38:41.822Z,22.97
2024-02-03T05:39:42.010Z,22.96
2024-02-03T05:40:41.928Z,22.94
2024-02-03T05:41:41.985Z,22.96
2024-02-03T05:42:42.044Z,22.97
2024-02-03T05:43:42.104Z,22.94
2024-02-03T05:44:42.160Z,22.97
2024-02-03T05:45:42.263Z,22.96
2024-02-03T05:46:42.251Z,22.96
2024-02-03T05:47:42.410Z,22.96
2024-02-03T05:48:42.504Z,22.94
2024-02-03T05:49:42.571Z,22.94
2024-02-03T05:50:42.488Z,22.90
2024-02-03T05:51:42.643Z,22.96
2024-02-03T05:52:42.603Z,22.97
2024-02-03T05:53:42.657Z,22.94
2024-02-03T05:54:42.756Z,22.94
2024-02-03T05:55:42.789Z,22.93
2024-02-03T05:56:42.836Z,22.93
2024-02-03T05:57:42.910Z,22.94
2024-02-03T05:58:42.960Z,22.93
2024-02-03T05:59:48.633Z,22.91
2024-02-03T06:00:44.085Z,22.91
2024-02-03T06:01:43.041Z,22.91
2024-02-03T06:02:43.001Z,22.94
2024-02-03T06:03:43.055Z,22.93
2024-02-03T06:04:43.040Z,22.96
2024-02-03T06:05:58.432Z,22.93
2024-02-03T06:06:44.131Z,22.93
2024-02-03T06:07:43.122Z,22.94
2024-02-03T06:08:43.027Z,22.93
2024-02-03T06:09:43.060Z,22.93
2024-02-03T06:10:43.059Z,22.93
2024-02-03T06:11:43.042Z,22.93
2024-02-03T06:12:43.108Z,22.94
2024-02-03T06:13:43.039Z,22.93
2024-02-03T06:14:43.056Z,22.93
2024-02-03T06:15:43.071Z,22.93
2024-02-03T06:16:43.088Z,22.94
2024-02-03T06:17:43.175Z,22.93
2024-02-03T06:18:43.304Z,22.91
2024-02-03T06:19:44.361Z,22.96
2024-02-03T06:20:43.364Z,22.90
2024-02-03T06:21:43.473Z,22.91
2024-02-03T06:22:43.492Z,22.91
2024-02-03T06:23:43.530Z,22.91
2024-02-03T06:24:43.614Z,22.94
2024-02-03T06:25:43.651Z,22.93
2024-02-03T06:26:43.771Z,22.93
2024-02-03T06:27:43.912Z,22.91
2024-02-03T06:28:43.834Z,22.93
2024-02-03T06:29:44.005Z,22.90
2024-02-03T06:30:44.034Z,22.90
2024-02-03T06:31:44.031Z,22.90
2024-02-03T06:32:44.181Z,22.91
2024-02-03T06:33:44.265Z,22.91
2024-02-03T06:34:44.299Z,22.90
2024-02-03T06:35:44.283Z,22.90
2024-02-03T06:36:44.358Z,22.91
2024-02-03T06:37:44.447Z,22.91
2024-02-03T06:38:44.478Z,22.91
2024-02-03T06:39:44.567Z,22.90
2024-02-03T06:40:44.647Z,22.90
2024-02-03T06:41:44.666Z,22.87
2024-02-03T06:42:44.776Z,22.90
2024-02-03T06:43:44.799Z,22.89
2024-02-03T06:44:47.007Z,22.91
2024-02-03T06:45:44.982Z,22.89
2024-02-03T06:46:44.990Z,22.87
2024-02-03T06:47:45.048Z,22.90
2024-02-03T06:48:45.231Z,22.90
2024-02-03T06:49:45.274Z,22.90
2024-02-03T06:50:45.241Z,22.90
2024-02-03T06:51:45.348Z,22.89
2024-02-03T06:52:45.383Z,22.90
2024-02-03T06:53:45.457Z,22.89
2024-02-03T06:54:45.554Z,22.91
2024-02-03T06:55:45.592Z,22.89
2024-02-03T06:56:45.642Z,22.90
2024-02-03T06:57:45.781Z,22.91
2024-02-03T06:58:45.781Z,22.90
2024-02-03T06:59:45.845Z,22.89
2024-02-03T07:00:45.944Z,22.91
2024-02-03T07:01:46.029Z,22.91
2024-02-03T07:02:46.053Z,22.90
2024-02-03T07:03:46.157Z,22.91
2024-02-03T07:04:46.220Z,22.90
2024-02-03T07:05:46.310Z,22.90
2024-02-03T07:06:46.474Z,22.90
2024-02-03T07:07:46.394Z,22.91
2024-02-03T07:08:48.269Z,22.91
2024-02-03T07:09:46.460Z,22.91
2024-02-03T07:10:46.455Z,22.87
2024-02-03T07:11:56.767Z,22.90
2024-02-03T07:12:47.524Z,22.89
2024-02-03T07:13:46.491Z,22.89
2024-02-03T07:14:46.473Z,22.90
2024-02-03T07:15:46.492Z,22.89
2024-02-03T07:16:46.472Z,22.91
2024-02-03T07:17:46.519Z,22.90
2024-02-03T07:18:46.627Z,22.91
2024-02-03T07:19:46.568Z,22.91
2024-02-03T07:20:46.519Z,22.90
2024-02-03T07:21:46.512Z,22.91
2024-02-03T07:22:46.580Z,22.91
2024-02-03T07:23:46.630Z,22.94
2024-02-03T07:24:46.771Z,22.98
2024-02-03T07:25:46.779Z,23.00
2024-02-03T07:26:46.835Z,23.03
2024-02-03T07:27:46.990Z,23.04
2024-02-03T07:28:46.931Z,23.11
2024-02-03T07:29:47.001Z,23.13
2024-02-03T07:30:47.083Z,23.13
2024-02-03T07:31:47.129Z,23.14
2024-02-03T07:32:47.194Z,23.11
2024-02-03T07:33:47.316Z,23.10
2024-02-03T07:34:47.492Z,23.07
2024-02-03T07:35:47.481Z,23.07
2024-02-03T07:36:47.474Z,23.07
2024-02-03T07:37:47.495Z,23.04
2024-02-03T07:38:47.543Z,23.04
2024-02-03T07:39:47.689Z,23.06
2024-02-03T07:40:47.666Z,23.06
2024-02-03T07:41:47.724Z,23.06
2024-02-03T07:42:47.844Z,23.07
2024-02-03T07:43:47.858Z,23.08
2024-02-03T07:44:47.915Z,23.13
2024-02-03T07:45:48.004Z,23.18
2024-02-03T07:46:48.016Z,23.21
2024-02-03T07:47:48.147Z,23.22
2024-02-03T07:48:48.267Z,23.28
2024-02-03T07:49:48.302Z,23.32
2024-02-03T07:50:48.183Z,23.32
2024-02-03T07:51:48.310Z,23.35
2024-02-03T07:52:49.019Z,23.37
2024-02-03T07:53:48.348Z,23.41
2024-02-03T07:54:48.384Z,23.42
2024-02-03T07:55:48.372Z,23.42
2024-02-03T07:56:48.406Z,23.44
2024-02-03T07:57:51.178Z,23.45
2024-02-03T07:58:48.437Z,23.48
2024-02-03T07:59:48.434Z,23.49
2024-02-03T08:00:48.484Z,23.49
2024-02-03T08:01:48.531Z,23.54
2024-02-03T08:02:48.448Z,23.54
2024-02-03T08:03:48.549Z,23.55
2024-02-03T08:04:48.492Z,23.55
2024-02-03T08:05:48.496Z,23.58
2024-02-03T08:06:48.556Z,23.58
2024-02-03T08:07:48.480Z,23.59
2024-02-03T08:08:48.499Z,23.61
2024-02-03T08:09:48.501Z,23.66
2024-02-03T08:10:48.444Z,23.66
2024-02-03T08:11:48.472Z,23.68
2024-02-03T08:12:48.527Z,23.68
2024-02-03T08:13:48.536Z,23.71
2024-02-03T08:14:48.470Z,23.73
2024-02-03T08:15:48.573Z,23.75
2024-02-03T08:16:48.500Z,23.73
2024-02-03T08:17:48.517Z,23.82
2024-02-03T08:18:48.534Z,23.80
2024-02-03T08:19:48.531Z,23.83
2024-02-03T08:20:48.472Z,23.85
2024-02-03T08:21:48.550Z,23.86
2024-02-03T08:22:48.468Z,23.89
2024-02-03T08:23:48.467Z,23.92
2024-02-03T08:24:48.490Z,23.95
2024-02-03T08:25:48.467Z,23.96
2024-02-03T08:26:48.484Z,23.98
2024-02-03T08:27:48.493Z,24.00
2024-02-03T08:28:48.479Z,24.03
2024-02-03T08:29:48.482Z,24.06
2024-02-03T08:30:48.588Z,24.05
2024-02-03T08:31:48.540Z,24.08
2024-02-03T08:32:48.643Z,24.09
2024-02-03T08:33:48.580Z,24.12
2024-02-03T08:35:48.664Z,24.16
2024-02-03T08:36:48.596Z,24.17
2024-02-03T08:37:48.539Z,24.20
2024-02-03T08:38:48.493Z,24.24
2024-02-03T08:39:48.573Z,24.23
2024-02-03T08:40:48.476Z,24.24
2024-02-03T08:41:48.500Z,24.29
2024-02-03T08:42:48.546Z,24.31
2024-02-03T08:43:48.483Z,24.33
2024-02-03T08:44:48.500Z,24.37
2024-02-03T08:45:48.591Z,24.37
2024-02-03T08:46:48.488Z,24.39
2024-02-03T08:47:48.607Z,24.43
2024-02-03T08:48:48.575Z,24.43
2024-02-03T08:49:48.592Z,24.47
2024-02-03T08:50:48.499Z,24.49
2024-02-03T08:51:48.596Z,24.49
2024-02-03T08:52:48.512Z,24.50
2024-02-03T08:53:48.530Z,24.53
2024-02-03T08:54:48.581Z,24.56
2024-02-03T08:55:48.503Z,24.60
2024-02-03T08:56:48.557Z,24.64
2024-02-03T08:57:48.517Z,24.67
2024-02-03T08:58:48.510Z,24.70
2024-02-03T08:59:48.534Z,24.75
2024-02-03T09:00:48.552Z,24.85
2024-02-03T09:01:48.564Z,24.97
2024-02-03T09:02:48.543Z,25.12
2024-02-03T09:03:48.892Z,25.33
2024-02-03T09:04:48.589Z,25.50
2024-02-03T09:05:48.586Z,25.65
2024-02-03T09:06:48.520Z,25.80
2024-02-03T09:07:48.593Z,25.91
2024-02-03T09:08:48.530Z,26.00
2024-02-03T09:09:48.619Z,26.05
2024-02-03T09:10:48.520Z,26.13
2024-02-03T09:11:48.522Z,26.17
2024-02-03T09:12:48.610Z,26.21
2024-02-03T09:13:48.526Z,26.23
2024-02-03T09:14:48.534Z,26.28
2024-02-03T09:15:48.533Z,26.27
2024-02-03T09:16:48.538Z,26.28
2024-02-03T09:17:48.599Z,26.28
2024-02-03T09:18:48.662Z,26.27
2024-02-03T09:19:48.715Z,26.27
2024-02-03T09:20:48.574Z,26.27
2024-02-03T09:21:48.565Z,26.26
2024-02-03T09:22:48.559Z,26.28
2024-02-03T09:23:48.544Z,26.26
2024-02-03T09:24:48.648Z,26.26
2024-02-03T09:25:48.549Z,26.23
2024-02-03T09:26:48.555Z,26.16
2024-02-03T09:27:48.653Z,26.10
2024-02-03T09:28:48.557Z,26.08
2024-02-03T09:29:48.581Z,26.07
2024-02-03T09:30:48.567Z,26.10
2024-02-03T09:31:48.603Z,26.08
2024-02-03T09:32:48.640Z,26.10
2024-02-03T09:33:48.712Z,26.14
2024-02-03T09:34:48.666Z,26.19
2024-02-03T09:35:48.592Z,26.23
2024-02-03T09:37:51.797Z,26.40
2024-02-03T09:38:48.643Z,26.45
2024-02-03T09:39:48.756Z,26.56
2024-02-03T09:40:48.662Z,26.62
2024-02-03T09:41:48.645Z,26.71
2024-02-03T09:42:48.685Z,26.75
2024-02-03T09:43:50.331Z,26.82
2024-02-03T09:44:48.645Z,26.83
2024-02-03T09:45:48.683Z,26.83
2024-02-03T09:46:48.642Z,26.85
2024-02-03T09:47:48.739Z,26.86
2024-02-03T09:48:48.787Z,26.85
2024-02-03T09:49:48.736Z,26.85
2024-02-03T09:50:48.658Z,26.83
2024-02-03T09:51:48.739Z,26.83
2024-02-03T09:52:48.663Z,26.88
2024-02-03T09:53:48.687Z,26.92
2024-02-03T09:54:48.802Z,26.92
2024-02-03T09:55:48.694Z,26.95
2024-02-03T09:56:48.668Z,26.93
2024-02-03T09:57:48.944Z,26.93
2024-02-03T09:58:48.699Z,26.92
2024-02-03T09:59:48.671Z,26.86
2024-02-03T10:00:48.775Z,26.83
2024-02-03T10:01:48.668Z,26.77
2024-02-03T10:02:48.680Z,26.75
2024-02-03T10:03:48.697Z,26.70
2024-02-03T10:04:48.701Z,26.68
2024-02-03T10:05:48.746Z,26.70
2024-02-03T10:06:48.880Z,26.70
2024-02-03T10:07:48.715Z,26.71
2024-02-03T10:08:48.744Z,26.77
2024-02-03T10:11:48.841Z,26.95
2024-02-03T10:12:48.809Z,26.98
2024-02-03T10:13:48.790Z,26.99
2024-02-03T10:14:48.792Z,27.02
2024-02-03T10:15:48.913Z,27.03
2024-02-03T10:16:48.789Z,27.06
2024-02-03T10:17:48.831Z,27.06
2024-02-03T10:18:48.947Z,27.12
2024-02-03T10:19:48.846Z,27.10
2024-02-03T10:20:48.805Z,27.16
2024-02-03T10:21:48.828Z,27.17
2024-02-03T10:22:48.823Z,27.23
2024-02-03T10:23:48.809Z,27.22
2024-02-03T10:24:48.862Z,27.23
2024-02-03T10:25:48.816Z,27.28
2024-02-03T10:26:48.801Z,27.29
2024-02-03T10:27:48.876Z,27.30
2024-02-03T10:28:48.818Z,27.33
2024-02-03T10:29:48.816Z,27.32
2024-02-03T10:30:48.922Z,27.34
2024-02-03T10:31:48.868Z,27.34
2024-02-03T10:32:48.919Z,27.39
2024-02-03T10:33:48.972Z,27.36
2024-02-03T10:34:48.840Z,27.34
2024-02-03T10:35:48.837Z,27.30
2024-02-03T10:36:50.526Z,27.28
2024-02-03T10:37:48.823Z,27.26
2024-02-03T10:38:48.846Z,27.26
2024-02-03T10:39:48.966Z,27.20
2024-02-03T10:40:48.834Z,27.20
2024-02-03T10:41:48.825Z,27.19
2024-02-03T10:42:48.942Z,27.22
2024-02-03T10:43:48.916Z,27.30
2024-02-03T10:44:48.832Z,27.36
2024-02-03T10:45:49.602Z,27.46
2024-02-03T10:46:48.848Z,27.56
2024-02-03T10:47:48.952Z,27.63
2024-02-03T10:48:49.049Z,27.70
2024-02-03T10:49:49.046Z,27.79
2024-02-03T10:50:48.850Z,27.85
2024-02-03T10:51:48.937Z,27.90
2024-02-03T10:52:48.898Z,27.95
2024-02-03T10:53:48.971Z,27.97
2024-02-03T10:54:49.089Z,28.00
2024-02-03T10:55:49.048Z,28.05
2024-02-03T10:56:49.096Z,28.08
2024-02-03T10:57:49.348Z,28.12
2024-02-03T10:58:49.187Z,28.14
2024-02-03T10:59:49.218Z,28.16
2024-02-03T11:00:49.342Z,28.16
2024-02-03T11:01:49.315Z,28.21
2024-02-03T11:02:49.360Z,28.24
2024-02-03T11:03:49.494Z,28.28
2024-02-03T11:04:49.439Z,28.29
2024-02-03T11:05:49.524Z,28.31
2024-02-03T11:06:49.711Z,28.35
2024-02-03T11:07:49.574Z,28.35
2024-02-03T11:08:49.589Z,28.39
2024-02-03T11:09:49.677Z,28.38
2024-02-03T11:10:49.700Z,28.39
2024-02-03T11:11:49.703Z,28.36
2024-02-03T11:12:49.741Z,28.35
2024-02-03T11:13:49.740Z,28.35
2024-02-03T11:14:49.793Z,28.34
2024-02-03T11:15:49.826Z,28.28
2024-02-03T11:16:49.817Z,28.22
2024-02-03T11:17:49.918Z,28.14
2024-02-03T11:18:49.967Z,28.05
2024-02-03T11:19:50.261Z,27.95
2024-02-03T11:20:49.974Z,27.83
2024-02-03T11:21:50.135Z,27.74
2024-02-03T11:22:50.109Z,27.64
2024-02-03T11:23:50.155Z,27.60
2024-02-03T11:24:50.227Z,27.53
2024-02-03T11:25:50.283Z,27.44
2024-02-03T11:26:50.333Z,27.37
2024-02-03T11:27:50.480Z,27.30
2024-02-03T11:28:50.453Z,27.28
2024-02-03T11:29:50.501Z,27.23
2024-02-03T11:30:50.639Z,27.19
2024-02-03T11:31:50.711Z,27.10
2024-02-03T11:32:50.644Z,27.07
2024-02-03T11:33:50.732Z,27.06
2024-02-03T11:34:50.754Z,27.01
2024-02-03T11:35:50.689Z,26.96
2024-02-03T11:36:50.762Z,26.95
2024-02-03T11:37:50.718Z,26.88
2024-02-03T11:38:50.719Z,26.85
2024-02-03T11:39:50.829Z,26.83
2024-02-03T11:40:50.704Z,26.81
2024-02-03T11:41:50.729Z,26.81
2024-02-03T11:42:50.791Z,26.75
2024-02-03T11:43:50.714Z,26.74
2024-02-03T11:44:50.725Z,26.74
2024-02-03T11:45:50.834Z,26.71
2024-02-03T11:46:50.784Z,26.70
2024-02-03T11:47:50.782Z,26.68
2024-02-03T11:48:50.921Z,26.70
2024-02-03T11:49:50.903Z,26.68
2024-02-03T11:50:50.794Z,26.67
2024-02-03T11:51:50.891Z,26.65
2024-02-03T11:52:50.815Z,26.62
2024-02-03T11:53:50.798Z,26.62
2024-02-03T11:54:50.851Z,26.62
2024-02-03T11:55:50.818Z,26.61
2024-02-03T11:56:50.830Z,26.62
2024-02-03T11:57:50.875Z,26.59
2024-02-03T11:58:50.897Z,26.61
2024-02-03T11:59:50.866Z,26.59
2024-02-03T12:00:51.003Z,26.58
2024-02-03T12:01:50.883Z,26.55
2024-02-03T12:02:50.888Z,26.56
2024-02-03T12:03:50.934Z,26.55
2024-02-03T12:04:50.948Z,26.55
2024-02-03T12:05:50.985Z,26.54
2024-02-03T12:06:50.970Z,26.51
2024-02-03T12:07:50.991Z,26.52
2024-02-03T12:08:50.967Z,26.51
2024-02-03T12:09:50.993Z,26.48
2024-02-03T12:10:50.999Z,26.48
2024-02-03T12:11:50.999Z,26.48
2024-02-03T12:12:51.062Z,26.50
2024-02-03T12:13:51.033Z,26.45
2024-02-03T12:14:51.057Z,26.45
2024-02-03T12:15:51.132Z,26.45
2024-02-03T12:16:51.108Z,26.45
2024-02-03T12:17:51.241Z,26.44
2024-02-03T12:18:51.264Z,26.41
2024-02-03T12:19:51.334Z,26.44
2024-02-03T12:20:51.170Z,26.40
2024-02-03T12:21:51.255Z,26.40
2024-02-03T12:22:51.241Z,26.42
2024-02-03T12:23:51.251Z,26.38
2024-02-03T12:24:51.384Z,26.37
2024-02-03T12:25:51.311Z,26.38
2024-02-03T12:26:51.355Z,26.37
2024-02-03T12:27:51.482Z,26.37
2024-02-03T12:28:51.495Z,26.37
2024-02-03T12:29:51.432Z,26.32
2024-02-03T12:30:51.545Z,26.34
2024-02-03T12:31:51.539Z,26.34
2024-02-03T12:32:51.584Z,26.31
2024-02-03T12:33:51.652Z,26.34
2024-02-03T12:34:51.765Z,26.31
2024-02-03T12:35:51.657Z,26.31
2024-02-03T12:36:51.727Z,26.31
2024-02-03T12:37:51.754Z,26.28
2024-02-03T12:38:51.765Z,26.30
2024-02-03T12:39:51.817Z,26.27
2024-02-03T12:40:51.848Z,26.27
2024-02-03T12:41:51.886Z,26.24
2024-02-03T12:42:51.944Z,26.26
2024-02-03T12:43:51.932Z,26.26
2024-02-03T12:44:51.987Z,26.21
2024-02-03T12:45:52.053Z,26.23
2024-02-03T12:46:52.026Z,26.24
2024-02-03T12:47:52.050Z,26.21
2024-02-03T12:48:52.322Z,26.19
2024-02-03T12:49:52.276Z,26.20
2024-02-03T12:50:52.148Z,26.19
2024-02-03T12:51:52.280Z,26.16
2024-02-03T12:52:52.244Z,26.17
2024-02-03T12:53:52.270Z,26.16
2024-02-03T12:54:52.378Z,26.16
2024-02-03T12:55:52.333Z,26.14
2024-02-03T12:56:52.375Z,26.13